Time;durP1;ratioP1;P1;durP2;ratioP2;P2;SDS_P1;SDS_P2;PMS_P1;PMS_P2;Temp;Humidity;BMP_temperature;BMP_pressure;BME280_temperature;BME280_humidity;BME280_pressure;Samples;Min_cycle;Max_cycle;Signal;HPM_P1;HPM_P2
2021/03/26 00:00:12;;;;;;;0.40;0.40;;;15.40;66.80;;;;;;4197109;28;20048;-44
2021/03/26 00:02:34;;;;;;;0.00;0.00;;;15.40;66.90;;;;;;4196840;28;20056;-44
2021/03/26 00:04:55;;;;;;;0.00;0.00;;;15.40;66.90;;;;;;4196922;28;20056;-44
2021/03/26 00:07:16;;;;;;;0.00;0.00;;;15.40;66.90;;;;;;4197089;28;20048;-44
2021/03/26 00:09:37;;;;;;;0.00;0.00;;;15.40;67.00;;;;;;4197111;28;20072;-44
2021/03/26 00:12:01;;;;;;;0.00;0.00;;;15.40;67.00;;;;;;4196528;28;20059;-44
2021/03/26 00:14:23;;;;;;;0.00;0.00;;;15.30;67.00;;;;;;4196883;28;20045;-44
2021/03/26 00:16:45;;;;;;;0.00;0.00;;;15.30;67.20;;;;;;4196760;28;20454;-45
2021/03/26 00:19:06;;;;;;;;;;;15.30;67.20;;;;;;4196905;28;20513;-47
2021/03/26 00:21:27;;;;;;;0.00;0.00;;;15.30;67.30;;;;;;4196553;28;19924;-44
2021/03/26 00:23:49;;;;;;;0.00;0.00;;;15.30;67.30;;;;;;4196848;28;20048;-44
2021/03/26 00:26:10;;;;;;;0.20;0.20;;;15.30;67.40;;;;;;4196452;28;20102;-44
2021/03/26 00:28:32;;;;;;;0.00;0.00;;;15.20;67.40;;;;;;4196709;28;20052;-43
2021/03/26 00:30:53;;;;;;;0.00;0.00;;;15.20;67.40;;;;;;4195782;28;20098;-44
2021/03/26 00:33:13;;;;;;;;;;;15.20;67.50;;;;;;4196665;28;20568;-46
2021/03/26 00:35:36;;;;;;;0.00;0.00;;;15.20;67.60;;;;;;4196075;28;20294;-43
2021/03/26 00:37:57;;;;;;;0.00;0.00;;;15.20;67.60;;;;;;4196546;28;20048;-46
2021/03/26 00:40:20;;;;;;;0.00;0.00;;;15.20;67.60;;;;;;4196286;28;20044;-45
2021/03/26 00:42:41;;;;;;;0.00;0.00;;;15.20;67.60;;;;;;4196281;28;20542;-46
2021/03/26 00:45:02;;;;;;;1.13;1.13;;;15.10;67.60;;;;;;4196393;28;20109;-47
2021/03/26 00:47:24;;;;;;;0.00;0.00;;;15.10;67.80;;;;;;4196254;28;20078;-45
2021/03/26 00:49:46;;;;;;;0.10;0.10;;;15.10;67.90;;;;;;4194836;28;20049;-43
2021/03/26 00:52:07;;;;;;;0.00;0.00;;;15.10;68.10;;;;;;4183744;28;20060;-46
2021/03/26 00:54:29;;;;;;;0.30;0.30;;;15.10;68.20;;;;;;4195781;28;20056;-45
2021/03/26 00:56:50;;;;;;;0.00;0.00;;;15.10;68.20;;;;;;4194743;28;20068;-44
2021/03/26 00:59:13;;;;;;;0.00;0.00;;;15.00;68.20;;;;;;4194928;28;20052;-45
2021/03/26 01:01:34;;;;;;;0.00;0.00;;;15.00;68.30;;;;;;4196157;28;20490;-43
2021/03/26 01:03:56;;;;;;;0.00;0.00;;;15.00;68.40;;;;;;4195670;28;20418;-45
2021/03/26 01:06:20;;;;;;;0.00;0.00;;;15.00;68.60;;;;;;4195996;28;20052;-43
2021/03/26 01:08:41;;;;;;;0.00;0.00;;;15.00;68.60;;;;;;4194831;28;20052;-44
2021/03/26 01:11:12;;;;;;;0.00;0.00;;;15.00;68.70;;;;;;4195452;28;20405;-46
2021/03/26 01:13:34;;;;;;;1.77;0.85;;;15.00;69.60;;;;;;4195675;28;20045;-45
2021/03/26 01:15:55;;;;;;;0.40;0.40;;;15.00;68.70;;;;;;4195754;28;20055;-44
2021/03/26 01:18:24;;;;;;;0.20;0.20;;;14.90;68.70;;;;;;4194685;28;20091;-46
2021/03/26 01:20:45;;;;;;;0.05;0.05;;;14.90;69.60;;;;;;4194386;28;20192;-44
2021/03/26 01:23:07;;;;;;;0.00;0.00;;;14.90;68.80;;;;;;4195613;28;20056;-45
2021/03/26 01:25:32;;;;;;;0.00;0.00;;;14.90;69.00;;;;;;4192151;28;20048;-45
2021/03/26 01:28:21;;;;;;;0.00;0.00;;;14.90;69.00;;;;;;4179067;28;20057;-44
2021/03/26 01:31:00;;;;;;;0.00;0.00;;;14.90;69.00;;;;;;4192031;28;20063;-48
2021/03/26 01:33:22;;;;;;;0.68;0.68;;;14.90;69.10;;;;;;4189749;28;20050;-47
2021/03/26 01:35:45;;;;;;;0.00;0.00;;;14.90;69.10;;;;;;4195635;28;20687;-43
2021/03/26 01:38:07;;;;;;;0.10;0.10;;;14.90;69.10;;;;;;4195515;28;20048;-46
2021/03/26 01:40:42;;;;;;;0.00;0.00;;;14.90;69.20;;;;;;4194448;28;20100;-47
2021/03/26 01:43:05;;;;;;;0.00;0.00;;;14.90;69.20;;;;;;4193666;28;20569;-44
2021/03/26 01:45:27;;;;;;;0.10;0.10;;;14.90;69.30;;;;;;4195466;28;20045;-44
2021/03/26 01:47:55;;;;;;;0.68;0.68;;;14.90;69.30;;;;;;4195461;28;20093;-43
2021/03/26 01:50:20;;;;;;;0.10;0.10;;;14.80;69.20;;;;;;4191915;28;20047;-44
2021/03/26 01:52:42;;;;;;;0.00;0.00;;;14.80;69.30;;;;;;4178920;28;20057;-43
2021/03/26 01:55:06;;;;;;;0.03;0.03;;;14.80;69.30;;;;;;4180522;28;20127;-43
2021/03/26 01:57:28;;;;;;;0.00;0.00;;;14.80;69.40;;;;;;4194316;28;20075;-44
2021/03/26 01:59:59;;;;;;;0.05;0.05;;;14.80;69.40;;;;;;4194856;28;20040;-48
2021/03/26 02:02:25;;;;;;;1.65;1.55;;;14.80;69.50;;;;;;4194905;28;20080;-45
2021/03/26 02:05:15;;;;;;;0.30;0.30;;;14.80;69.50;;;;;;4194457;28;20056;-43
2021/03/26 02:08:12;;;;;;;0.63;0.63;;;14.80;69.50;;;;;;4192345;28;20048;-46
2021/03/26 02:10:44;;;;;;;0.08;0.08;;;14.80;69.60;;;;;;4194043;28;20055;-46
2021/03/26 02:13:07;;;;;;;0.00;0.00;;;14.80;69.60;;;;;;4191557;28;20520;-46
2021/03/26 02:15:34;;;;;;;0.00;0.00;;;14.80;69.60;;;;;;4178530;28;20092;-43
2021/03/26 02:17:56;;;;;;;0.10;0.10;;;14.70;69.60;;;;;;4177819;28;20053;-44
2021/03/26 02:20:27;;;;;;;0.50;0.50;;;14.70;69.60;;;;;;4191734;28;20542;-44
2021/03/26 02:22:52;;;;;;;;;;;14.70;69.70;;;;;;4178115;28;20099;-47
2021/03/26 02:25:19;;;;;;;0.00;0.00;;;14.70;69.80;;;;;;4183869;28;19925;-44
2021/03/26 02:27:40;;;;;;;0.22;0.22;;;14.70;69.80;;;;;;4194159;28;20561;-45
2021/03/26 02:30:10;;;;;;;0.10;0.10;;;14.70;69.80;;;;;;4194745;28;20138;-45
2021/03/26 02:32:41;;;;;;;0.00;0.00;;;14.70;69.90;;;;;;4194196;28;20136;-46
2021/03/26 02:35:15;;;;;;;0.00;0.00;;;14.70;69.90;;;;;;4194266;28;20052;-46
2021/03/26 02:37:40;;;;;;;0.00;0.00;;;14.70;70.00;;;;;;4194091;28;20052;-44
2021/03/26 02:40:02;;;;;;;0.13;0.13;;;14.70;70.00;;;;;;4193954;28;20455;-46
2021/03/26 02:42:29;;;;;;;0.00;0.00;;;14.70;70.10;;;;;;4193984;28;20063;-44
2021/03/26 02:45:01;;;;;;;0.00;0.00;;;14.60;70.00;;;;;;4194140;28;20082;-44
2021/03/26 02:47:45;;;;;;;0.08;0.08;;;14.60;70.30;;;;;;4195392;28;20470;-45
2021/03/26 02:50:20;;;;;;;0.00;0.00;;;14.60;71.00;;;;;;4178385;28;20060;-44
2021/03/26 02:52:48;;;;;;;0.00;0.00;;;14.60;70.20;;;;;;4178402;28;20073;-45
2021/03/26 02:55:18;;;;;;;0.00;0.00;;;14.60;70.10;;;;;;4186099;28;20528;-43
2021/03/26 02:57:45;;;;;;;0.00;0.00;;;14.60;70.10;;;;;;4197963;28;20063;-44
2021/03/26 03:00:13;;;;;;;0.00;0.00;;;14.60;70.20;;;;;;4197620;28;20048;-48
2021/03/26 03:02:36;;;;;;;0.00;0.00;;;14.60;70.20;;;;;;4196379;28;20052;-50
2021/03/26 03:05:08;;;;;;;0.00;0.00;;;14.60;70.20;;;;;;4197691;28;20487;-49
2021/03/26 03:07:36;;;;;;;0.30;0.30;;;14.60;70.20;;;;;;4196873;28;20623;-45
2021/03/26 03:10:27;;;;;;;0.00;0.00;;;14.60;70.20;;;;;;4197835;28;20098;-44
2021/03/26 03:12:52;;;;;;;0.17;0.17;;;14.60;70.20;;;;;;4196613;28;20131;-46
2021/03/26 03:15:19;;;;;;;0.00;0.00;;;14.60;70.20;;;;;;4196573;28;20059;-44
2021/03/26 03:17:44;;;;;;;0.00;0.00;;;14.50;70.30;;;;;;4197621;28;20469;-46
2021/03/26 03:20:17;;;;;;;0.00;0.00;;;14.60;70.30;;;;;;4196637;28;20057;-45
2021/03/26 03:22:43;;;;;;;0.10;0.10;;;14.60;70.30;;;;;;4196629;28;20713;-46
2021/03/26 03:25:11;;;;;;;0.20;0.20;;;14.50;70.40;;;;;;4196485;28;20087;-44
2021/03/26 03:27:40;;;;;;;0.15;0.15;;;14.50;70.40;;;;;;4197682;28;20079;-47
2021/03/26 03:30:14;;;;;;;0.00;0.00;;;14.50;70.40;;;;;;4196358;28;20111;-44
2021/03/26 03:33:07;;;;;;;0.00;0.00;;;14.50;70.50;;;;;;4196422;28;20048;-44
2021/03/26 03:35:48;;;;;;;0.00;0.00;;;14.50;70.40;;;;;;4196165;28;20052;-43
2021/03/26 03:38:34;;;;;;;0.00;0.00;;;14.60;70.50;;;;;;4197357;28;20052;-43
2021/03/26 03:41:02;;;;;;;0.00;0.00;;;14.50;70.50;;;;;;4210454;28;20632;-43
2021/03/26 03:43:32;;;;;;;0.00;0.00;;;14.50;71.40;;;;;;4196388;28;20064;-45
2021/03/26 03:46:02;;;;;;;0.22;0.22;;;14.50;70.60;;;;;;4196374;28;20060;-43
2021/03/26 03:48:45;;;;;;;0.30;0.30;;;14.50;70.60;;;;;;4196374;28;20053;-46
2021/03/26 03:51:14;;;;;;;0.65;0.65;;;14.50;70.60;;;;;;4196745;28;20501;-43
2021/03/26 03:53:41;;;;;;;0.00;0.00;;;14.50;70.60;;;;;;4197307;28;20052;-44
2021/03/26 03:56:20;;;;;;;0.85;0.52;;;14.50;70.70;;;;;;4195703;28;20423;-45
2021/03/26 03:58:48;;;;;;;0.00;0.00;;;14.50;70.70;;;;;;4196207;28;20048;-45
2021/03/26 04:01:19;;;;;;;0.22;0.22;;;14.50;70.70;;;;;;4195562;28;20147;-45
2021/03/26 04:03:47;;;;;;;0.00;0.00;;;14.50;70.70;;;;;;4195704;28;20052;-45
2021/03/26 04:06:13;;;;;;;0.00;0.00;;;14.50;70.80;;;;;;4192329;28;20788;-44
2021/03/26 04:08:38;;;;;;;0.00;0.00;;;14.50;70.80;;;;;;4179487;28;20146;-43
2021/03/26 04:11:08;;;;;;;0.00;0.00;;;14.50;70.80;;;;;;4194966;28;20059;-43
2021/03/26 04:13:39;;;;;;;0.00;0.00;;;14.40;70.80;;;;;;4195930;28;20607;-44
2021/03/26 04:16:02;;;;;;;0.05;0.05;;;14.40;70.80;;;;;;4195737;28;20083;-43
2021/03/26 04:18:32;;;;;;;0.00;0.00;;;14.40;70.90;;;;;;4179241;28;20505;-44
2021/03/26 04:21:17;;;;;;;0.98;0.13;;;14.50;70.90;;;;;;4179065;28;20060;-46
2021/03/26 04:23:56;;;;;;;0.00;0.00;;;14.40;70.90;;;;;;4179166;28;20053;-45
2021/03/26 04:26:26;;;;;;;0.00;0.00;;;14.40;70.90;;;;;;4179977;28;20148;-45
2021/03/26 04:29:11;;;;;;;0.00;0.00;;;14.40;70.90;;;;;;4183810;28;20171;-43
2021/03/26 04:31:47;;;;;;;0.00;0.00;;;14.40;71.00;;;;;;4195304;28;20495;-44
2021/03/26 04:34:13;;;;;;;0.00;0.00;;;14.40;71.00;;;;;;4195493;28;20453;-46
2021/03/26 04:36:41;;;;;;;0.10;0.10;;;14.40;71.00;;;;;;4178773;28;20057;-43
2021/03/26 04:39:34;;;;;;;0.10;0.10;;;14.30;71.00;;;;;;4182568;28;20052;-43
2021/03/26 04:42:00;;;;;;;0.00;0.00;;;14.40;71.10;;;;;;4196471;28;20082;-44
2021/03/26 04:44:27;;;;;;;0.00;0.00;;;14.40;71.30;;;;;;4195404;28;20057;-44
2021/03/26 04:46:57;;;;;;;0.20;0.20;;;14.40;72.20;;;;;;4195045;28;20131;-45
2021/03/26 04:49:36;;;;;;;0.08;0.08;;;14.30;71.10;;;;;;4192666;28;20049;-44
2021/03/26 04:52:02;;;;;;;2.08;0.98;;;14.40;71.20;;;;;;4179776;28;20594;-48
2021/03/26 04:54:44;;;;;;;0.98;0.98;;;14.30;71.10;;;;;;4184057;28;20080;-46
2021/03/26 04:57:31;;;;;;;0.00;0.00;;;14.40;71.20;;;;;;4194968;28;20048;-47
2021/03/26 04:59:57;;;;;;;0.52;0.52;;;14.30;71.20;;;;;;4195028;28;20048;-45
2021/03/26 05:02:31;;;;;;;0.20;0.20;;;14.30;71.20;;;;;;4194696;28;20080;-44
2021/03/26 05:04:57;;;;;;;0.00;0.00;;;14.30;71.30;;;;;;4196135;28;20055;-47
2021/03/26 05:07:40;;;;;;;0.20;0.20;;;14.30;71.40;;;;;;4194903;28;20127;-48
2021/03/26 05:10:05;;;;;;;0.13;0.13;;;14.30;71.40;;;;;;4194739;28;20060;-49
2021/03/26 05:12:36;;;;;;;0.95;0.95;;;14.30;71.50;;;;;;4194959;28;20615;-45
2021/03/26 05:15:13;;;;;;;0.55;0.55;;;14.30;71.50;;;;;;4194848;28;20476;-48
2021/03/26 05:17:49;;;;;;;3.83;2.17;;;14.30;71.50;;;;;;4194560;28;20580;-50
2021/03/26 05:20:23;;;;;;;0.00;0.00;;;14.30;71.50;;;;;;4195376;28;20053;-47
2021/03/26 05:23:09;;;;;;;0.00;0.00;;;14.30;71.50;;;;;;4195891;28;20499;-46
2021/03/26 05:25:56;;;;;;;0.35;0.35;;;14.30;71.60;;;;;;4195893;28;20084;-46
2021/03/26 05:28:30;;;;;;;2.30;0.32;;;14.30;71.60;;;;;;4194849;28;20070;-44
2021/03/26 05:31:09;;;;;;;0.00;0.00;;;14.30;71.60;;;;;;4194141;28;20041;-46
2021/03/26 05:33:37;;;;;;;0.00;0.00;;;14.20;71.60;;;;;;4194772;28;20052;-45
2021/03/26 05:36:03;;;;;;;0.00;0.00;;;14.20;71.60;;;;;;4195739;28;20123;-48
2021/03/26 05:38:55;;;;;;;0.05;0.05;;;14.20;71.60;;;;;;4184491;28;20060;-49
2021/03/26 05:41:52;;;;;;;0.15;0.15;;;14.20;71.70;;;;;;4195292;28;20060;-49
2021/03/26 05:45:02;;;;;;;0.00;0.00;;;14.20;71.80;;;;;;4195609;28;20135;-45
2021/03/26 05:48:10;;;;;;;0.00;0.00;;;14.20;71.80;;;;;;4195476;28;20056;-44
2021/03/26 05:50:52;;;;;;;0.55;0.47;;;14.20;71.90;;;;;;4194249;28;20546;-46
2021/03/26 05:53:40;;;;;;;0.30;0.30;;;14.20;71.90;;;;;;4194682;28;20048;-47
2021/03/26 05:56:32;;;;;;;0.00;0.00;;;14.20;71.90;;;;;;4177660;28;20075;-45
2021/03/26 05:59:08;;;;;;;0.00;0.00;;;14.10;72.00;;;;;;4177835;28;20057;-44
2021/03/26 06:01:49;;;;;;;0.28;0.28;;;14.10;71.90;;;;;;4183525;28;20465;-47
2021/03/26 06:05:10;;;;;;;4.38;0.57;;;14.20;72.00;;;;;;4195451;28;20048;-45
2021/03/26 06:08:32;;;;;;;0.85;0.60;;;14.20;72.00;;;;;;4195682;28;20075;-45
2021/03/26 06:11:38;;;;;;;0.00;0.00;;;14.20;72.10;;;;;;4128094;28;20057;-50
2021/03/26 06:15:14;;;;;;;0.00;0.00;;;14.10;72.00;;;;;;4143933;28;20556;-43
2021/03/26 06:18:18;;;;;;;0.10;0.10;;;14.20;72.30;;;;;;4121816;28;20057;-49
2021/03/26 06:21:23;;;;;;;0.00;0.00;;;14.10;72.20;;;;;;4193408;28;20060;-46
2021/03/26 06:24:59;;;;;;;0.57;0.57;;;14.10;72.10;;;;;;4195060;28;20410;-46
2021/03/26 06:27:34;;;;;;;0.00;0.00;;;14.20;72.20;;;;;;4189791;28;20056;-49
2021/03/26 06:30:06;;;;;;;6.38;1.40;;;14.10;72.40;;;;;;4196082;28;20099;-46
2021/03/26 06:33:13;;;;;;;0.00;0.00;;;14.10;72.50;;;;;;4194677;28;20062;-46
2021/03/26 06:36:05;;;;;;;0.00;0.00;;;14.10;72.60;;;;;;4181857;28;20415;-45
2021/03/26 06:39:03;;;;;;;1.08;1.08;;;14.10;72.60;;;;;;4181502;28;20502;-50
2021/03/26 06:41:39;;;;;;;0.00;0.00;;;14.20;73.40;;;;;;4181615;28;20063;-46
2021/03/26 06:44:57;;;;;;;0.15;0.15;;;14.20;73.80;;;;;;4184500;28;20068;-45
2021/03/26 06:47:30;;;;;;;0.35;0.35;;;14.30;73.80;;;;;;4197479;28;20529;-44
2021/03/26 06:49:57;;;;;;;0.00;0.00;;;14.30;73.00;;;;;;4181549;28;20142;-45
2021/03/26 06:52:43;;;;;;;0.90;0.90;;;14.40;72.70;;;;;;4189338;28;20040;-47
2021/03/26 06:55:32;;;;;;;0.98;0.52;;;14.40;72.50;;;;;;4195396;28;20053;-50
2021/03/26 06:58:36;;;;;;;0.60;0.60;;;14.30;72.10;;;;;;4196737;28;21115;-51
2021/03/26 07:01:23;;;;;;;0.63;0.55;;;14.30;71.90;;;;;;4198366;28;20055;-44
2021/03/26 07:04:06;;;;;;;0.35;0.35;;;14.30;71.70;;;;;;4196827;28;20053;-47
2021/03/26 07:06:53;;;;;;;0.80;0.80;;;14.30;71.50;;;;;;4181396;28;20549;-44
2021/03/26 07:09:26;;;;;;;0.00;0.00;;;14.20;71.40;;;;;;4195434;28;20106;-44
2021/03/26 07:12:00;;;;;;;0.13;0.13;;;14.20;71.30;;;;;;4198009;28;20135;-43
2021/03/26 07:14:39;;;;;;;0.00;0.00;;;14.20;71.30;;;;;;4198239;28;20131;-45
2021/03/26 07:17:40;;;;;;;0.43;0.43;;;14.20;71.30;;;;;;4197316;28;20063;-46
2021/03/26 07:20:37;;;;;;;0.47;0.47;;;14.20;71.20;;;;;;4180234;28;20574;-45
2021/03/26 07:23:34;;;;;;;1.08;1.08;;;14.20;71.20;;;;;;4197801;28;20110;-44
2021/03/26 07:26:11;;;;;;;0.00;0.00;;;14.20;71.20;;;;;;4197513;28;20056;-45
2021/03/26 07:28:40;;;;;;;0.47;0.47;;;14.20;71.10;;;;;;4197394;28;20495;-44
2021/03/26 07:31:16;;;;;;;1.65;1.55;;;14.20;71.00;;;;;;4197621;28;20052;-47
2021/03/26 07:33:44;;;;;;;0.20;0.20;;;14.20;71.00;;;;;;4197022;28;20052;-44
2021/03/26 07:36:15;;;;;;;0.13;0.13;;;14.20;71.00;;;;;;4180959;28;20136;-45
2021/03/26 07:38:51;;;;;;;1.10;1.10;;;14.20;71.00;;;;;;4183263;28;20079;-46
2021/03/26 07:41:43;;;;;;;1.17;0.73;;;14.20;70.90;;;;;;4196145;28;20060;-43
2021/03/26 07:44:26;;;;;;;4.70;0.65;;;14.20;70.90;;;;;;4196758;28;20048;-45
2021/03/26 07:47:16;;;;;;;0.13;0.13;;;14.20;70.90;;;;;;4196090;28;20442;-47
2021/03/26 07:49:50;;;;;;;0.20;0.20;;;14.20;70.90;;;;;;4197391;28;20550;-42
2021/03/26 07:52:18;;;;;;;0.20;0.20;;;14.20;71.30;;;;;;4197067;28;20064;-44
2021/03/26 07:55:05;;;;;;;0.88;0.88;;;14.20;71.00;;;;;;4196790;28;20407;-45
2021/03/26 07:57:43;;;;;;;0.22;0.22;;;14.30;70.80;;;;;;4196958;28;20434;-46
2021/03/26 08:00:32;;;;;;;0.43;0.43;;;14.80;69.70;;;;;;4196825;28;20086;-43
2021/03/26 08:03:33;;;;;;;0.43;0.43;;;15.40;67.90;;;;;;4197075;28;20071;-43
2021/03/26 08:06:00;;;;;;;;;;;16.00;67.30;;;;;;4191529;28;20566;-44
2021/03/26 08:08:47;;;;;;;0.90;0.90;;;16.60;65.40;;;;;;4197359;28;20401;-45
2021/03/26 08:11:24;;;;;;;0.00;0.00;;;17.10;62.60;;;;;;4196816;28;20144;-45
2021/03/26 08:14:15;;;;;;;1.00;0.80;;;17.60;60.60;;;;;;4196568;28;20048;-45
2021/03/26 08:17:13;;;;;;;0.37;0.37;;;17.80;59.30;;;;;;4196903;28;20131;-45
2021/03/26 08:19:45;;;;;;;0.57;0.57;;;18.00;58.30;;;;;;4195356;28;20363;-47
2021/03/26 08:22:17;;;;;;;1.03;1.03;;;18.10;58.00;;;;;;4196805;28;20552;-45
2021/03/26 08:25:03;;;;;;;0.82;0.82;;;18.00;58.00;;;;;;4195993;28;20052;-45
2021/03/26 08:27:36;;;;;;;0.57;0.57;;;17.80;58.20;;;;;;4196625;28;20048;-46
2021/03/26 08:30:31;;;;;;;0.40;0.40;;;17.70;58.50;;;;;;4196656;28;20487;-45
2021/03/26 08:33:05;;;;;;;0.52;0.52;;;17.80;58.30;;;;;;4196333;28;20926;-47
2021/03/26 08:35:35;;;;;;;0.20;0.20;;;17.90;58.00;;;;;;4196603;28;20122;-44
2021/03/26 08:38:15;;;;;;;2.92;2.65;;;18.00;57.80;;;;;;4196176;28;20514;-46
2021/03/26 08:40:48;;;;;;;0.30;0.30;;;17.90;57.70;;;;;;4194753;28;20102;-52
2021/03/26 08:43:10;;;;;;;0.98;0.40;;;17.80;57.90;;;;;;4196455;28;20151;-50
2021/03/26 08:45:36;;;;;;;20.38;2.55;;;17.70;58.30;;;;;;4196049;28;20080;-51
2021/03/26 08:48:07;;;;;;;1.88;1.77;;;17.50;58.60;;;;;;4196306;28;20048;-48
2021/03/26 08:50:42;;;;;;;0.32;0.32;;;17.40;59.00;;;;;;4196464;28;20060;-46
2021/03/26 08:53:17;;;;;;;1.05;1.05;;;17.20;59.40;;;;;;4195509;28;20133;-45
2021/03/26 08:56:00;;;;;;;1.27;1.15;;;17.10;59.80;;;;;;4187160;28;20490;-44
2021/03/26 08:58:51;;;;;;;0.85;0.52;;;17.00;60.00;;;;;;4196106;28;20061;-45
2021/03/26 09:01:57;;;;;;;0.32;0.32;;;17.00;60.00;;;;;;4193427;28;20060;-44
2021/03/26 09:04:47;;;;;;;0.20;0.20;;;17.00;60.10;;;;;;4150022;28;20808;-46
2021/03/26 09:07:17;;;;;;;0.00;0.00;;;16.90;60.40;;;;;;4195548;28;20513;-46
2021/03/26 09:10:16;;;;;;;0.50;0.50;;;16.80;60.70;;;;;;4196036;28;20045;-45
2021/03/26 09:12:54;;;;;;;8.30;3.05;;;16.70;61.00;;;;;;4195882;28;20063;-45
2021/03/26 09:15:41;;;;;;;7.82;2.97;;;16.80;60.90;;;;;;4195554;28;20059;-45
2021/03/26 09:18:08;;;;;;;0.70;0.70;;;17.00;60.30;;;;;;4195541;28;20067;-44
2021/03/26 09:20:35;;;;;;;0.35;0.35;;;17.20;59.80;;;;;;4195798;28;20141;-46
2021/03/26 09:23:29;;;;;;;0.60;0.55;;;17.30;59.80;;;;;;4195995;28;20049;-44
2021/03/26 09:25:54;;;;;;;0.40;0.40;;;17.20;60.00;;;;;;4195781;28;20045;-44
2021/03/26 09:28:26;;;;;;;0.63;0.63;;;17.10;60.40;;;;;;4195832;28;20419;-45
2021/03/26 09:30:58;;;;;;;3.55;0.65;;;17.00;61.30;;;;;;4195765;28;20049;-45
2021/03/26 09:33:20;;;;;;;0.20;0.20;;;17.00;61.70;;;;;;4195428;28;20055;-44
2021/03/26 09:35:46;;;;;;;0.15;0.15;;;16.90;62.20;;;;;;4195468;28;20044;-44
2021/03/26 09:38:22;;;;;;;5.03;1.35;;;16.80;62.60;;;;;;4195005;28;20060;-45
2021/03/26 09:40:50;;;;;;;0.13;0.13;;;16.70;62.90;;;;;;4195626;28;20048;-43
2021/03/26 09:43:22;;;;;;;5.80;3.20;;;16.60;64.00;;;;;;4195668;28;20060;-44
2021/03/26 09:45:48;;;;;;;0.20;0.20;;;16.50;63.50;;;;;;4195377;28;20494;-43
2021/03/26 09:48:22;;;;;;;3.40;2.22;;;16.60;63.60;;;;;;4195696;28;20087;-43
2021/03/26 09:50:51;;;;;;;3.10;2.72;;;16.70;63.10;;;;;;4195693;28;20080;-45
2021/03/26 09:53:16;;;;;;;2.22;2.05;;;16.70;63.70;;;;;;4195464;28;20045;-47
2021/03/26 09:55:40;;;;;;;2.58;2.38;;;16.80;62.60;;;;;;4195383;28;20049;-50
2021/03/26 09:58:12;;;;;;;0.88;0.88;;;16.80;62.70;;;;;;4195548;28;20063;-46
2021/03/26 10:00:51;;;;;;;0.45;0.45;;;16.80;62.90;;;;;;4194954;28;20055;-44
2021/03/26 10:03:24;;;;;;;9.65;1.83;;;16.70;63.00;;;;;;4195012;28;20048;-46
2021/03/26 10:05:54;;;;;;;0.60;0.60;;;16.70;63.30;;;;;;4198953;28;20096;-48
2021/03/26 10:11:12;;;;;;;0.95;0.95;;;16.70;63.60;;;;;;4188387;28;20048;-46
2021/03/26 10:13:41;;;;;;;0.30;0.30;;;16.60;63.70;;;;;;4198824;28;20125;-44
2021/03/26 10:16:06;;;;;;;0.65;0.57;;;16.60;64.00;;;;;;4198183;28;20057;-44
2021/03/26 10:18:32;;;;;;;0.15;0.15;;;16.60;64.20;;;;;;4198718;28;20113;-44
2021/03/26 10:21:08;;;;;;;0.17;0.17;;;16.60;64.40;;;;;;4198692;28;20056;-43
2021/03/26 10:23:34;;;;;;;0.20;0.20;;;16.60;65.50;;;;;;4198369;28;20501;-44
2021/03/26 10:26:07;;;;;;;0.45;0.45;;;16.50;65.50;;;;;;4198658;28;20045;-51
2021/03/26 10:28:47;;;;;;;0.82;0.82;;;16.50;65.70;;;;;;4198356;28;20453;-49
2021/03/26 10:31:12;;;;;;;0.17;0.17;;;16.50;66.10;;;;;;4198533;28;20059;-44
2021/03/26 10:33:35;;;;;;;0.15;0.15;;;16.50;67.00;;;;;;4198266;28;20048;-44
2021/03/26 10:36:09;;;;;;;0.10;0.10;;;16.50;67.50;;;;;;4198321;28;20060;-43
2021/03/26 10:38:49;;;;;;;0.63;0.63;;;16.50;67.90;;;;;;4198080;28;20494;-44
2021/03/26 10:41:20;;;;;;;0.17;0.17;;;16.50;68.20;;;;;;4197237;28;20048;-47
2021/03/26 10:43:45;;;;;;;;;;;16.50;68.60;;;;;;4197573;28;20062;-44
2021/03/26 10:46:11;;;;;;;0.38;0.38;;;16.50;69.20;;;;;;4198022;28;19930;-43
2021/03/26 10:48:41;;;;;;;2.30;2.13;;;16.50;69.50;;;;;;4198244;28;20062;-45
2021/03/26 10:51:26;;;;;;;0.00;0.00;;;16.50;70.70;;;;;;4198089;28;20060;-44
2021/03/26 10:53:52;;;;;;;0.50;0.50;;;16.50;70.20;;;;;;4197915;28;20053;-43
2021/03/26 10:56:28;;;;;;;0.20;0.20;;;16.50;70.30;;;;;;4197291;28;20075;-44
2021/03/26 10:58:57;;;;;;;0.30;0.30;;;16.50;70.40;;;;;;4197407;28;20044;-44
2021/03/26 11:01:23;;;;;;;1.58;0.35;;;16.50;70.80;;;;;;4197944;28;20132;-44
2021/03/26 11:03:48;;;;;;;0.10;0.10;;;16.50;70.80;;;;;;4197964;28;20056;-44
2021/03/26 11:06:19;;;;;;;0.10;0.10;;;16.40;70.70;;;;;;4197677;28;20126;-44
2021/03/26 11:08:50;;;;;;;0.20;0.20;;;16.40;70.60;;;;;;4194330;28;20060;-46
2021/03/26 11:11:45;;;;;;;0.50;0.50;;;16.40;70.70;;;;;;4197979;28;20053;-46
2021/03/26 11:14:34;;;;;;;0.38;0.38;;;16.40;70.70;;;;;;4185193;28;20052;-43
2021/03/26 11:17:10;;;;;;;0.30;0.30;;;16.40;71.00;;;;;;4181291;28;20411;-43
2021/03/26 11:19:35;;;;;;;0.85;0.85;;;16.40;71.00;;;;;;4181242;28;20268;-44
2021/03/26 11:22:02;;;;;;;0.10;0.10;;;16.40;70.90;;;;;;4181014;28;20075;-44
2021/03/26 11:24:24;;;;;;;0.10;0.10;;;16.40;70.70;;;;;;4181026;28;20052;-43
2021/03/26 11:26:51;;;;;;;0.63;0.63;;;16.30;70.70;;;;;;4186181;28;20090;-43
2021/03/26 11:29:21;;;;;;;0.55;0.55;;;16.30;70.70;;;;;;4190056;28;20056;-43
2021/03/26 11:31:52;;;;;;;0.10;0.10;;;16.40;70.50;;;;;;4197337;28;20057;-43
2021/03/26 11:34:31;;;;;;;0.20;0.20;;;16.30;70.30;;;;;;4196302;28;20307;-45
2021/03/26 11:37:08;;;;;;;0.15;0.15;;;16.30;70.30;;;;;;4186293;28;20060;-44
2021/03/26 11:39:35;;;;;;;0.30;0.30;;;16.30;70.00;;;;;;4197122;28;20102;-44
2021/03/26 11:42:18;;;;;;;1.77;0.65;;;16.30;69.90;;;;;;4191415;28;20048;-44
2021/03/26 11:44:52;;;;;;;0.08;0.08;;;16.30;69.90;;;;;;4197346;28;20174;-48
2021/03/26 11:47:30;;;;;;;0.52;0.52;;;16.30;70.10;;;;;;4197294;28;20048;-45
2021/03/26 11:49:57;;;;;;;3.92;1.45;;;16.30;71.10;;;;;;4196188;28;20122;-44
2021/03/26 11:52:19;;;;;;;0.20;0.20;;;16.30;70.20;;;;;;4196088;28;20053;-45
2021/03/26 11:54:44;;;;;;;0.10;0.10;;;16.20;70.20;;;;;;4196721;28;20059;-44
2021/03/26 11:57:14;;;;;;;0.80;0.40;;;16.30;70.10;;;;;;4196734;28;20524;-44
2021/03/26 12:00:10;;;;;;;0.10;0.10;;;16.20;69.90;;;;;;4197058;28;20095;-46
2021/03/26 12:02:58;;;;;;;0.80;0.40;;;16.20;69.70;;;;;;4196995;28;20061;-43
2021/03/26 12:05:57;;;;;;;1.55;0.98;;;16.20;69.80;;;;;;4197207;28;20059;-44
2021/03/26 12:08:26;;;;;;;1.02;0.95;;;16.20;69.70;;;;;;4195939;28;20141;-45
2021/03/26 12:10:56;;;;;;;0.10;0.10;;;16.20;69.60;;;;;;4196965;28;20160;-44
2021/03/26 12:13:23;;;;;;;0.20;0.20;;;16.30;69.50;;;;;;4196983;28;20254;-45
2021/03/26 12:15:52;;;;;;;0.05;0.05;;;16.30;69.10;;;;;;4196673;28;20121;-44
2021/03/26 12:18:22;;;;;;;0.70;0.52;;;16.30;68.80;;;;;;4191277;28;20136;-47
2021/03/26 12:20:45;;;;;;;0.00;0.00;;;16.30;69.70;;;;;;4196342;28;20052;-43
2021/03/26 12:23:32;;;;;;;0.38;0.38;;;16.30;68.50;;;;;;4196541;28;20144;-46
2021/03/26 12:25:59;;;;;;;0.00;0.00;;;16.30;68.60;;;;;;4196299;28;20052;-44
2021/03/26 12:28:33;;;;;;;0.20;0.20;;;16.30;68.60;;;;;;4196593;28;20048;-44
2021/03/26 12:30:59;;;;;;;0.35;0.35;;;16.30;68.50;;;;;;4196627;28;20053;-44
2021/03/26 12:33:27;;;;;;;0.15;0.15;;;16.30;68.60;;;;;;4196363;28;20072;-43
2021/03/26 12:35:52;;;;;;;7.88;1.77;;;16.30;68.70;;;;;;4196405;28;20499;-44
2021/03/26 12:38:29;;;;;;;0.00;0.00;;;16.30;68.60;;;;;;4196419;28;20131;-43
2021/03/26 12:41:04;;;;;;;0.00;0.00;;;16.30;68.60;;;;;;4195144;28;20052;-43
2021/03/26 12:43:33;;;;;;;0.10;0.10;;;16.30;68.60;;;;;;4196551;28;20049;-45
2021/03/26 12:45:57;;;;;;;0.25;0.25;;;16.30;68.50;;;;;;4195836;28;20086;-43
2021/03/26 12:48:21;;;;;;;0.00;0.00;;;16.30;68.20;;;;;;4185687;28;20438;-44
2021/03/26 12:50:48;;;;;;;3.28;0.43;;;16.30;68.00;;;;;;4196299;28;20418;-48
2021/03/26 12:53:12;;;;;;;0.45;0.45;;;16.20;67.80;;;;;;4195968;28;20048;-47
2021/03/26 12:55:42;;;;;;;0.10;0.10;;;16.30;67.90;;;;;;4179447;28;20499;-44
2021/03/26 12:58:46;;;;;;;0.40;0.40;;;16.30;67.50;;;;;;4179679;28;20553;-46
2021/03/26 13:01:11;;;;;;;0.28;0.28;;;16.30;67.40;;;;;;4188329;28;20425;-46
2021/03/26 13:03:36;;;;;;;0.00;0.00;;;16.30;67.30;;;;;;4196274;28;20063;-45
2021/03/26 13:06:08;;;;;;;0.00;0.00;;;16.30;67.10;;;;;;4196108;28;20087;-47
2021/03/26 13:08:32;;;;;;;0.00;0.00;;;16.30;67.90;;;;;;4196189;28;20052;-43
2021/03/26 13:10:58;;;;;;;0.10;0.10;;;16.30;67.10;;;;;;4195573;28;20053;-46
2021/03/26 13:13:39;;;;;;;0.00;0.00;;;16.30;67.10;;;;;;4195566;28;20049;-44
2021/03/26 13:16:16;;;;;;;0.55;0.25;;;16.30;66.70;;;;;;4180857;28;20052;-44
2021/03/26 13:18:49;;;;;;;5.00;2.10;;;16.30;66.80;;;;;;4185856;28;20060;-43
2021/03/26 13:21:25;;;;;;;0.60;0.60;;;16.30;67.10;;;;;;4195773;28;20044;-44
2021/03/26 13:23:46;;;;;;;0.00;0.00;;;16.30;67.00;;;;;;4195713;28;20124;-44
2021/03/26 13:26:19;;;;;;;0.65;0.65;;;16.30;67.10;;;;;;4195882;28;20045;-44